KDAY/DAY METAR and TAF weather

Enter ICAO airport designator
Station Type Date Time Source
KDAY METAR 2022/08/16 18:56 UTC NOAA

KDAY 161856Z 35010KT 10SM FEW043 SCT050 BKN110 27/16 A3003 RMK AO2 SLP163 T02670156


Station Type Date Time Source
KDAY Decoded METAR 2022/08/16 18:56 UTC NOAA

COX DAYTON INTERNATIONAL, OH, United States (KDAY) 39-54N 084-13W 305M
Aug 16, 2022 - 02:56 PM EDT / 2022.08.16 1856 UTC
Wind: from the N (350 degrees) at 12 MPH (10 KT):0
Visibility: 10 mile(s):0
Sky conditions: mostly cloudy
Temperature: 80.1 F (26.7 C)
Dew Point: 60.1 F (15.6 C)
Relative Humidity: 50%
Pressure (altimeter): 30.03 in. Hg (1016 hPa)
ob: KDAY 161856Z 35010KT 10SM FEW043 SCT050 BKN110 27/16 A3003 RMK AO2 SLP163 T02670156
cycle: 19

Station Type Date Time Source
KDAY TAF 2022/08/16 18:22 UTC NOAA

TAF KDAY 161720Z 1618/1718 03010KT P6SM SCT040
FM170100 04005KT P6SM SCT250
FM171500 04008KT P6SM SCT040

Example: see airport list